Time;durP1;ratioP1;P1;durP2;ratioP2;P2;SDS_P1;SDS_P2;PMS_P1;PMS_P2;Temp;Humidity;BMP_temperature;BMP_pressure;BME280_temperature;BME280_humidity;BME280_pressure;Samples;Min_cycle;Max_cycle;Signal;HPM_P1;HPM_P2
2022/04/15 00:02:15;;;;;;;12.20;4.55;;;;;;;;;;5126718;28;20047;-43
2022/04/15 00:04:41;;;;;;;9.48;4.55;;;;;;;;;;5125867;28;20042;-42
2022/04/15 00:07:06;;;;;;;15.13;5.93;;;;;;;;;;5126826;28;20382;-42
2022/04/15 00:09:33;;;;;;;5.82;3.38;;;;;;;;;;5124555;28;20709;-41
2022/04/15 00:12:06;;;;;;;7.65;3.58;;;;;;;;;;5125575;28;20043;-42
2022/04/15 00:14:32;;;;;;;9.85;3.85;;;;;;;;;;5124811;27;20043;-43
2022/04/15 00:16:57;;;;;;;11.45;5.68;;;;;;;;;;5126652;28;20055;-43
2022/04/15 00:19:23;;;;;;;13.77;5.85;;;;;;;;;;5126533;28;20395;-43
2022/04/15 00:21:48;;;;;;;17.15;5.57;;;;;;;;;;5125764;28;20054;-45
2022/04/15 00:24:14;;;;;;;10.77;4.65;;;;;;;;;;5126507;28;20047;-44
2022/04/15 00:26:39;;;;;;;10.10;4.13;;;;;;;;;;5125679;28;20047;-42
2022/04/15 00:29:06;;;;;;;13.32;4.68;;;;;;;;;;5126476;28;20115;-47
2022/04/15 00:31:32;;;;;;;5.93;3.38;;;;;;;;;;5126254;28;20122;-43
2022/04/15 00:33:57;;;;;;;11.40;5.32;;;;;;;;;;5126796;28;20525;-42
2022/04/15 00:36:23;;;;;;;10.93;4.45;;;;;;;;;;5126150;28;20050;-43
2022/04/15 00:38:48;;;;;;;8.52;5.07;;;;;;;;;;5126204;28;20498;-43
2022/04/15 00:41:15;;;;;;;17.70;5.40;;;;;;;;;;5126114;28;20035;-44
2022/04/15 00:43:40;;;;;;;8.88;4.00;;;;;;;;;;5126452;28;20039;-43
2022/04/15 00:46:09;;;;;;;9.27;5.97;;;;;;;;;;5126086;28;20557;-44
2022/04/15 00:48:36;;;;;;;7.45;5.03;;;;;;;;;;5125040;28;20179;-42
2022/04/15 00:51:01;;;;;;;14.60;4.30;;;;;;;;;;5124041;28;20047;-44
2022/04/15 00:53:28;;;;;;;8.65;4.20;;;;;;;;;;5125267;28;20070;-43
2022/04/15 00:55:57;;;;;;;8.77;3.55;;;;;;;;;;5123827;28;20536;-42
2022/04/15 00:58:23;;;;;;;9.73;4.32;;;;;;;;;;5126176;28;20050;-41
2022/04/15 01:00:53;;;;;;;9.20;5.07;;;;;;;;;;5126142;28;20132;-44
2022/04/15 01:03:21;;;;;;;7.72;4.53;;;;;;;;;;5125783;28;20054;-49
2022/04/15 01:05:47;;;;;;;16.70;3.50;;;;;;;;;;5125179;28;20498;-42
2022/04/15 01:08:13;;;;;;;11.15;4.32;;;;;;;;;;5125796;28;20051;-41
2022/04/15 01:10:40;;;;;;;8.65;4.13;;;;;;;;;;5126114;28;20083;-41
2022/04/15 01:13:06;;;;;;;11.07;4.07;;;;;;;;;;5125975;28;20062;-41
2022/04/15 01:15:33;;;;;;;6.68;3.85;;;;;;;;;;5125672;28;20039;-44
2022/04/15 01:17:58;;;;;;;7.63;4.50;;;;;;;;;;5125891;28;20050;-43
2022/04/15 01:20:25;;;;;;;15.95;4.68;;;;;;;;;;5125468;28;20051;-42
2022/04/15 01:22:58;;;;;;;10.38;5.50;;;;;;;;;;5125457;28;20047;-42
2022/04/15 01:25:24;;;;;;;10.50;4.78;;;;;;;;;;5125780;27;20103;-42
2022/04/15 01:27:49;;;;;;;10.20;4.07;;;;;;;;;;5129745;28;20074;-44
2022/04/15 01:30:20;;;;;;;9.23;4.38;;;;;;;;;;5128999;28;20417;-46
2022/04/15 01:32:46;;;;;;;10.05;5.43;;;;;;;;;;5129201;28;20088;-43
2022/04/15 01:35:13;;;;;;;16.13;3.45;;;;;;;;;;5128019;28;20043;-44
2022/04/15 01:37:39;;;;;;;4.57;3.03;;;;;;;;;;5129159;28;20049;-43
2022/04/15 01:40:05;;;;;;;20.95;3.97;;;;;;;;;;5129092;28;20054;-41
2022/04/15 01:42:31;;;;;;;6.85;3.53;;;;;;;;;;5129163;28;20054;-43
2022/04/15 01:44:57;;;;;;;16.92;4.22;;;;;;;;;;5129063;28;20039;-44
2022/04/15 01:47:22;;;;;;;15.18;4.85;;;;;;;;;;5128857;28;20100;-41
2022/04/15 01:49:47;;;;;;;11.32;3.17;;;;;;;;;;5128608;28;20073;-43
2022/04/15 01:52:13;;;;;;;5.47;3.58;;;;;;;;;;5128791;28;20042;-42
2022/04/15 01:54:38;;;;;;;8.27;5.57;;;;;;;;;;5128590;28;20130;-46
2022/04/15 01:57:04;;;;;;;9.98;5.47;;;;;;;;;;5128131;28;20089;-44
2022/04/15 01:59:29;;;;;;;10.00;4.85;;;;;;;;;;5128061;28;20035;-44
2022/04/15 02:01:55;;;;;;;11.45;4.13;;;;;;;;;;5128421;28;20050;-46
2022/04/15 02:04:26;;;;;;;8.63;6.22;;;;;;;;;;5127420;28;20603;-44
2022/04/15 02:06:52;;;;;;;9.30;5.28;;;;;;;;;;5127759;28;20039;-41
2022/04/15 02:09:18;;;;;;;12.32;5.38;;;;;;;;;;5127987;28;20096;-42
2022/04/15 02:11:44;;;;;;;9.27;5.68;;;;;;;;;;5128796;28;20050;-45
2022/04/15 02:14:10;;;;;;;13.02;4.78;;;;;;;;;;5106429;28;20046;-43
2022/04/15 02:16:35;;;;;;;19.63;6.53;;;;;;;;;;5128294;28;20490;-44
2022/04/15 02:19:01;;;;;;;7.13;4.20;;;;;;;;;;5128099;28;20081;-41
2022/04/15 02:21:26;;;;;;;8.73;3.88;;;;;;;;;;5128546;28;20078;-44
2022/04/15 02:23:52;;;;;;;7.70;4.15;;;;;;;;;;5128135;28;20429;-43
2022/04/15 02:26:17;;;;;;;12.82;4.65;;;;;;;;;;5127808;28;20062;-43
2022/04/15 02:28:43;;;;;;;19.63;5.20;;;;;;;;;;5127926;28;20574;-46
2022/04/15 02:31:08;;;;;;;6.28;4.57;;;;;;;;;;5128387;28;20063;-41
2022/04/15 02:33:34;;;;;;;9.13;4.65;;;;;;;;;;5127445;28;20472;-46
2022/04/15 02:35:59;;;;;;;13.45;5.28;;;;;;;;;;5127615;27;20120;-42
2022/04/15 02:38:24;;;;;;;10.95;6.45;;;;;;;;;;5126537;28;20509;-43
2022/04/15 02:40:50;;;;;;;19.20;5.05;;;;;;;;;;5127930;28;20086;-44
2022/04/15 02:43:15;;;;;;;10.88;3.55;;;;;;;;;;5128314;28;20646;-41
2022/04/15 02:45:42;;;;;;;11.13;4.13;;;;;;;;;;5128223;28;20054;-45
2022/04/15 02:48:07;;;;;;;13.15;4.75;;;;;;;;;;5127804;28;20075;-42
2022/04/15 02:50:33;;;;;;;9.32;4.10;;;;;;;;;;5127712;28;20521;-43
2022/04/15 02:52:59;;;;;;;5.85;3.38;;;;;;;;;;5127953;28;20134;-46
2022/04/15 02:55:25;;;;;;;12.23;3.60;;;;;;;;;;5127509;28;20198;-42
2022/04/15 02:57:50;;;;;;;12.95;6.00;;;;;;;;;;5127834;28;20448;-42
2022/04/15 03:00:16;;;;;;;11.45;3.30;;;;;;;;;;5127187;28;20054;-42
2022/04/15 03:02:41;;;;;;;8.27;4.13;;;;;;;;;;5127471;28;20577;-43
2022/04/15 03:05:09;;;;;;;9.65;4.97;;;;;;;;;;5127815;28;20054;-42
2022/04/15 03:07:35;;;;;;;8.30;4.35;;;;;;;;;;5126995;28;20035;-42
2022/04/15 03:10:00;;;;;;;10.63;3.60;;;;;;;;;;5128035;28;20472;-43
2022/04/15 03:12:25;;;;;;;9.32;4.47;;;;;;;;;;5127836;28;20722;-42
2022/04/15 03:14:51;;;;;;;6.43;3.33;;;;;;;;;;5127074;28;20039;-45
2022/04/15 03:17:16;;;;;;;6.22;2.65;;;;;;;;;;5127659;28;20047;-45
2022/04/15 03:19:42;;;;;;;10.63;3.65;;;;;;;;;;5127413;28;20073;-42
2022/04/15 03:22:07;;;;;;;12.25;3.55;;;;;;;;;;5127612;28;20039;-45
2022/04/15 03:24:32;;;;;;;3.83;2.75;;;;;;;;;;5127124;28;21402;-43
2022/04/15 03:26:58;;;;;;;9.20;2.78;;;;;;;;;;5127279;28;20122;-42
2022/04/15 03:29:23;;;;;;;11.95;2.90;;;;;;;;;;5126701;28;20517;-45
2022/04/15 03:31:49;;;;;;;4.88;2.85;;;;;;;;;;5127140;28;20147;-44
2022/04/15 03:34:14;;;;;;;10.77;4.18;;;;;;;;;;5127749;28;20283;-44
2022/04/15 03:36:40;;;;;;;6.78;3.30;;;;;;;;;;5126547;28;20043;-45
2022/04/15 03:39:05;;;;;;;7.30;3.20;;;;;;;;;;5127320;28;20598;-45
2022/04/15 03:41:31;;;;;;;8.50;3.63;;;;;;;;;;5126677;28;20043;-42
2022/04/15 03:43:56;;;;;;;8.50;3.40;;;;;;;;;;5127124;28;20035;-43
2022/04/15 03:46:21;;;;;;;9.82;3.85;;;;;;;;;;5126828;28;20053;-42
2022/04/15 03:48:47;;;;;;;8.00;3.65;;;;;;;;;;5126464;27;20513;-41
2022/04/15 03:51:13;;;;;;;11.95;3.30;;;;;;;;;;5126301;28;20126;-41
2022/04/15 03:53:38;;;;;;;17.30;4.82;;;;;;;;;;5127034;28;20055;-42
2022/04/15 03:56:06;;;;;;;7.28;4.47;;;;;;;;;;5126512;28;20130;-43
2022/04/15 03:58:31;;;;;;;8.80;4.35;;;;;;;;;;5126503;28;20055;-41
2022/04/15 04:00:57;;;;;;;7.40;3.72;;;;;;;;;;5126451;28;20134;-41
2022/04/15 04:03:23;;;;;;;8.30;5.15;;;;;;;;;;5126915;28;20070;-42
2022/04/15 04:05:48;;;;;;;9.75;4.97;;;;;;;;;;5127374;28;20117;-44
2022/04/15 04:08:14;;;;;;;12.50;5.28;;;;;;;;;;5126499;28;20524;-42
2022/04/15 04:10:39;;;;;;;8.45;5.30;;;;;;;;;;5126794;28;20107;-43
2022/04/15 04:13:05;;;;;;;7.47;4.97;;;;;;;;;;5126925;28;20047;-44
2022/04/15 04:15:31;;;;;;;6.20;4.88;;;;;;;;;;5125653;28;20103;-41
2022/04/15 04:17:56;;;;;;;16.38;5.50;;;;;;;;;;5126714;28;20098;-42
2022/04/15 04:20:22;;;;;;;11.38;5.78;;;;;;;;;;5126492;28;20078;-42
2022/04/15 04:22:48;;;;;;;5.93;3.55;;;;;;;;;;5126140;28;20114;-46
2022/04/15 04:25:13;;;;;;;7.20;4.05;;;;;;;;;;5125463;28;20039;-43
2022/04/15 04:27:39;;;;;;;6.95;3.90;;;;;;;;;;5126367;28;20039;-46
2022/04/15 04:30:05;;;;;;;8.35;3.78;;;;;;;;;;5126666;28;20051;-45
2022/04/15 04:32:31;;;;;;;6.55;3.97;;;;;;;;;;5125908;28;20039;-43
2022/04/15 04:34:56;;;;;;;17.42;5.10;;;;;;;;;;5126322;28;20031;-46
2022/04/15 04:37:22;;;;;;;9.85;5.22;;;;;;;;;;5126517;28;20053;-42
2022/04/15 04:39:47;;;;;;;6.70;4.07;;;;;;;;;;5126427;28;20503;-44
2022/04/15 04:42:12;;;;;;;9.98;4.93;;;;;;;;;;5125457;28;20043;-41
2022/04/15 04:44:38;;;;;;;9.80;4.10;;;;;;;;;;5125089;28;20502;-46
2022/04/15 04:47:05;;;;;;;7.90;5.43;;;;;;;;;;5126225;28;20047;-45
2022/04/15 04:49:30;;;;;;;8.35;3.13;;;;;;;;;;5125974;28;20402;-44
2022/04/15 04:51:56;;;;;;;8.35;4.20;;;;;;;;;;5126281;28;20054;-45
2022/04/15 04:54:21;;;;;;;8.05;4.47;;;;;;;;;;5125955;28;20046;-42
2022/04/15 04:56:47;;;;;;;12.95;6.95;;;;;;;;;;5125852;28;20671;-45
2022/04/15 04:59:12;;;;;;;8.82;4.93;;;;;;;;;;5125888;27;20050;-42
2022/04/15 05:01:37;;;;;;;5.85;4.45;;;;;;;;;;5129186;28;20071;-46
2022/04/15 05:04:03;;;;;;;17.80;4.22;;;;;;;;;;5129536;28;20043;-46
2022/04/15 05:06:28;;;;;;;10.35;5.05;;;;;;;;;;5129474;28;20069;-41
2022/04/15 05:08:54;;;;;;;5.90;3.95;;;;;;;;;;5129239;28;20043;-41
2022/04/15 05:11:19;;;;;;;5.60;4.10;;;;;;;;;;5129656;28;20104;-46
2022/04/15 05:13:45;;;;;;;12.98;5.82;;;;;;;;;;5128496;28;20066;-46
2022/04/15 05:16:10;;;;;;;6.75;4.43;;;;;;;;;;5129446;28;20077;-44
2022/04/15 05:18:35;;;;;;;13.20;4.43;;;;;;;;;;5127710;28;20070;-43
2022/04/15 05:21:01;;;;;;;18.52;6.50;;;;;;;;;;5129489;28;20047;-45
2022/04/15 05:23:27;;;;;;;11.85;5.38;;;;;;;;;;5129689;28;20050;-46
2022/04/15 05:25:52;;;;;;;7.88;5.35;;;;;;;;;;5129311;28;20069;-46
2022/04/15 05:28:18;;;;;;;10.85;5.32;;;;;;;;;;5129094;28;20042;-44
2022/04/15 05:30:43;;;;;;;7.47;4.22;;;;;;;;;;5129095;28;20047;-45
2022/04/15 05:33:09;;;;;;;8.85;5.05;;;;;;;;;;5129201;28;20057;-42
2022/04/15 05:35:34;;;;;;;9.88;6.03;;;;;;;;;;5128881;28;20039;-44
2022/04/15 05:38:00;;;;;;;8.93;5.57;;;;;;;;;;5129108;28;20896;-49
2022/04/15 05:40:27;;;;;;;8.60;6.15;;;;;;;;;;5129010;28;20043;-47
2022/04/15 05:42:53;;;;;;;11.73;7.82;;;;;;;;;;5128887;28;20043;-48
2022/04/15 05:45:18;;;;;;;11.07;6.10;;;;;;;;;;5128947;28;20050;-46
2022/04/15 05:47:44;;;;;;;13.07;7.95;;;;;;;;;;5128458;28;20410;-42
2022/04/15 05:50:09;;;;;;;13.57;5.80;;;;;;;;;;5127132;28;20112;-45
2022/04/15 05:52:35;;;;;;;6.97;4.70;;;;;;;;;;5128794;28;20135;-46
2022/04/15 05:55:00;;;;;;;9.23;5.57;;;;;;;;;;5129182;28;20107;-46
2022/04/15 05:57:26;;;;;;;9.45;4.93;;;;;;;;;;5127942;28;20043;-42
2022/04/15 05:59:51;;;;;;;11.00;4.95;;;;;;;;;;5128598;28;20043;-43
2022/04/15 06:02:16;;;;;;;9.82;5.18;;;;;;;;;;5128558;28;20031;-45
2022/04/15 06:04:42;;;;;;;13.10;7.30;;;;;;;;;;5129014;28;20062;-43
2022/04/15 06:07:07;;;;;;;5.90;4.45;;;;;;;;;;5127429;28;20035;-42
2022/04/15 06:09:33;;;;;;;11.52;5.68;;;;;;;;;;5128557;28;20131;-46
2022/04/15 06:11:58;;;;;;;6.13;3.63;;;;;;;;;;5128274;27;20122;-46
2022/04/15 06:14:23;;;;;;;7.30;4.47;;;;;;;;;;5128052;28;20630;-43
2022/04/15 06:16:49;;;;;;;10.10;5.25;;;;;;;;;;5128822;28;20047;-45
2022/04/15 06:19:15;;;;;;;8.43;4.28;;;;;;;;;;5128291;28;20047;-45
2022/04/15 06:21:41;;;;;;;9.57;6.35;;;;;;;;;;5128391;28;20088;-43
2022/04/15 06:24:08;;;;;;;7.63;4.82;;;;;;;;;;5128794;28;20043;-44
2022/04/15 06:26:34;;;;;;;23.98;8.13;;;;;;;;;;5128489;28;20046;-46
2022/04/15 06:28:59;;;;;;;11.15;6.38;;;;;;;;;;5128046;28;20047;-45
2022/04/15 06:31:25;;;;;;;10.23;5.97;;;;;;;;;;5128480;28;20410;-46
2022/04/15 06:33:52;;;;;;;12.10;6.03;;;;;;;;;;5127817;28;20557;-45
2022/04/15 06:36:19;;;;;;;16.35;6.05;;;;;;;;;;5127182;28;20162;-45
2022/04/15 06:38:44;;;;;;;9.77;5.03;;;;;;;;;;5128091;28;20050;-45
2022/04/15 06:41:10;;;;;;;13.50;7.95;;;;;;;;;;5128279;28;20035;-45
2022/04/15 06:43:35;;;;;;;11.38;5.00;;;;;;;;;;5127408;28;20421;-44
2022/04/15 06:46:03;;;;;;;7.65;5.97;;;;;;;;;;5127419;28;21263;-45
2022/04/15 06:48:28;;;;;;;13.20;7.15;;;;;;;;;;5128098;28;20034;-45
2022/04/15 06:50:54;;;;;;;12.00;6.13;;;;;;;;;;5128404;28;20247;-42
2022/04/15 06:53:23;;;;;;;30.45;8.88;;;;;;;;;;5127886;28;20051;-44
2022/04/15 06:55:49;;;;;;;11.45;8.85;;;;;;;;;;5109478;28;20043;-43
2022/04/15 06:58:14;;;;;;;15.35;10.05;;;;;;;;;;5127218;28;20074;-47
2022/04/15 07:00:40;;;;;;;13.18;8.48;;;;;;;;;;5127831;28;20742;-43
2022/04/15 07:03:06;;;;;;;15.23;7.88;;;;;;;;;;5127161;28;20421;-42
2022/04/15 07:05:31;;;;;;;19.73;8.52;;;;;;;;;;5127247;28;20621;-47
2022/04/15 07:07:56;;;;;;;13.02;8.85;;;;;;;;;;5127712;28;20065;-46
2022/04/15 07:10:22;;;;;;;10.65;8.25;;;;;;;;;;5127626;28;20817;-44
2022/04/15 07:12:48;;;;;;;18.02;8.35;;;;;;;;;;5127038;28;20039;-44
2022/04/15 07:15:14;;;;;;;20.33;7.35;;;;;;;;;;5127593;28;20092;-41
2022/04/15 07:17:39;;;;;;;17.38;11.30;;;;;;;;;;5127279;28;20051;-44
2022/04/15 07:20:05;;;;;;;14.73;9.75;;;;;;;;;;5128015;28;20035;-44
2022/04/15 07:22:30;;;;;;;11.85;7.43;;;;;;;;;;5127462;27;20051;-49
2022/04/15 07:24:56;;;;;;;10.20;8.82;;;;;;;;;;5126948;28;20039;-44
2022/04/15 07:27:21;;;;;;;13.88;9.73;;;;;;;;;;5127046;28;20058;-46
2022/04/15 07:29:47;;;;;;;12.70;9.98;;;;;;;;;;5126559;28;20249;-45
2022/04/15 07:32:19;;;;;;;17.90;11.10;;;;;;;;;;5127567;28;20171;-45
2022/04/15 07:34:45;;;;;;;20.25;11.18;;;;;;;;;;5127464;28;20097;-43
2022/04/15 07:37:10;;;;;;;22.02;10.65;;;;;;;;;;5127490;28;20513;-44
2022/04/15 07:39:36;;;;;;;25.38;11.65;;;;;;;;;;5127443;28;20051;-44
2022/04/15 07:42:01;;;;;;;10.45;8.73;;;;;;;;;;5127403;28;20139;-43
2022/04/15 07:44:26;;;;;;;10.05;6.97;;;;;;;;;;5127227;28;20086;-47
2022/04/15 07:46:52;;;;;;;13.55;5.53;;;;;;;;;;5127370;28;20559;-43
2022/04/15 07:49:17;;;;;;;9.70;5.20;;;;;;;;;;5126596;28;20074;-43
2022/04/15 07:51:43;;;;;;;8.43;5.30;;;;;;;;;;5127114;28;20418;-45
2022/04/15 07:54:09;;;;;;;12.65;6.07;;;;;;;;;;5126890;28;20592;-46
2022/04/15 07:56:34;;;;;;;10.52;4.75;;;;;;;;;;5126178;28;20051;-47
2022/04/15 07:59:00;;;;;;;7.88;4.72;;;;;;;;;;5126761;28;20537;-45
2022/04/15 08:01:27;;;;;;;11.95;3.45;;;;;;;;;;5126644;28;20066;-44
2022/04/15 08:03:53;;;;;;;5.35;3.85;;;;;;;;;;5126755;28;20126;-41
2022/04/15 08:06:19;;;;;;;12.95;3.70;;;;;;;;;;5125978;28;20039;-43
2022/04/15 08:08:44;;;;;;;8.77;4.70;;;;;;;;;;5126160;28;20477;-46
2022/04/15 08:11:09;;;;;;;9.95;3.63;;;;;;;;;;5126587;28;20082;-43
2022/04/15 08:13:35;;;;;;;15.40;5.05;;;;;;;;;;5126546;28;20054;-44
2022/04/15 08:16:00;;;;;;;8.68;3.97;;;;;;;;;;5126467;28;20115;-44
2022/04/15 08:18:25;;;;;;;13.13;4.55;;;;;;;;;;5126587;28;20054;-44
2022/04/15 08:20:52;;;;;;;11.63;2.47;;;;;;;;;;5126608;28;20046;-44
2022/04/15 08:23:17;;;;;;;13.77;2.38;;;;;;;;;;5125864;28;20121;-45
2022/04/15 08:25:44;;;;;;;17.67;4.32;;;;;;;;;;5126254;28;20118;-47
2022/04/15 08:28:10;;;;;;;27.73;5.65;;;;;;;;;;5125715;28;20055;-43
2022/04/15 08:30:35;;;;;;;7.05;2.70;;;;;;;;;;5125067;28;20094;-46
2022/04/15 08:33:02;;;;;;;3.55;2.30;;;;;;;;;;5125549;28;20517;-47
2022/04/15 08:35:28;;;;;;;4.18;2.47;;;;;;;;;;5125460;27;20489;-45
2022/04/15 08:37:53;;;;;;;13.52;3.75;;;;;;;;;;5124275;28;20104;-45
2022/04/15 08:40:19;;;;;;;6.70;2.72;;;;;;;;;;5125704;28;20047;-43
2022/04/15 08:42:44;;;;;;;4.22;2.38;;;;;;;;;;5125738;28;20062;-46
2022/04/15 08:45:10;;;;;;;6.93;3.83;;;;;;;;;;5126106;28;20138;-47
2022/04/15 08:47:40;;;;;;;10.85;3.45;;;;;;;;;;5125729;28;20043;-42
2022/04/15 08:50:10;;;;;;;6.75;3.28;;;;;;;;;;5125456;28;20058;-44
2022/04/15 08:52:36;;;;;;;3.20;1.43;;;;;;;;;;5125893;28;20070;-45
2022/04/15 08:55:01;;;;;;;3.35;1.23;;;;;;;;;;5125798;28;20107;-47
2022/04/15 08:57:27;;;;;;;2.78;1.30;;;;;;;;;;5125885;28;20385;-46
2022/04/15 08:59:53;;;;;;;7.20;2.35;;;;;;;;;;5125789;28;20100;-47
2022/04/15 09:02:30;;;;;;;1.88;1.27;;;;;;;;;;5125976;28;20052;-43
2022/04/15 09:04:56;;;;;;;4.57;2.92;;;;;;;;;;5125149;28;20494;-46
2022/04/15 09:07:21;;;;;;;8.90;3.63;;;;;;;;;;5125130;28;20037;-42
2022/04/15 09:09:53;;;;;;;25.20;1.73;;;;;;;;;;5125891;28;20093;-41
2022/04/15 09:12:19;;;;;;;6.32;3.65;;;;;;;;;;5125465;28;20044;-42
2022/04/15 09:14:45;;;;;;;11.70;3.33;;;;;;;;;;5106927;28;20522;-42
2022/04/15 09:17:11;;;;;;;5.68;3.72;;;;;;;;;;5125627;28;20112;-46
2022/04/15 09:19:37;;;;;;;5.35;1.90;;;;;;;;;;5124321;28;20074;-43
2022/04/15 09:22:03;;;;;;;8.00;3.72;;;;;;;;;;5124425;28;20055;-46
2022/04/15 09:24:32;;;;;;;7.63;2.85;;;;;;;;;;5125728;28;20589;-44
2022/04/15 09:27:04;;;;;;;4.45;2.72;;;;;;;;;;5125848;28;20390;-43
2022/04/15 09:29:34;;;;;;;11.48;5.82;;;;;;;;;;5125800;28;20039;-44
2022/04/15 09:32:20;;;;;;;4.03;2.15;;;;;;;;;;5125572;28;20086;-44
2022/04/15 09:35:00;;;;;;;5.75;2.35;;;;;;;;;;5124509;28;20043;-43
2022/04/15 09:37:30;;;;;;;6.03;2.92;;;;;;;;;;5125491;28;20054;-44
2022/04/15 09:40:02;;;;;;;4.13;2.30;;;;;;;;;;5125652;28;20092;-43
2022/04/15 09:42:29;;;;;;;7.00;4.43;;;;;;;;;;5125280;28;20054;-42
2022/04/15 09:44:59;;;;;;;14.50;8.15;;;;;;;;;;5124674;28;20066;-43
2022/04/15 09:47:24;;;;;;;14.55;10.88;;;;;;;;;;5127230;27;20137;-44
2022/04/15 09:49:50;;;;;;;11.25;5.15;;;;;;;;;;5127458;28;20058;-47
2022/04/15 09:52:24;;;;;;;6.00;2.72;;;;;;;;;;5129421;28;20051;-44
2022/04/15 09:54:50;;;;;;;7.82;3.33;;;;;;;;;;5127991;28;20053;-46
2022/04/15 09:57:15;;;;;;;9.52;4.97;;;;;;;;;;5128443;28;20039;-44
2022/04/15 09:59:47;;;;;;;6.50;3.15;;;;;;;;;;5128638;28;20043;-44
2022/04/15 10:02:14;;;;;;;9.95;2.55;;;;;;;;;;5127541;28;20057;-43
2022/04/15 10:04:41;;;;;;;7.30;2.03;;;;;;;;;;5128145;28;20050;-45
2022/04/15 10:07:08;;;;;;;4.45;2.67;;;;;;;;;;5127669;28;20154;-46
2022/04/15 10:09:41;;;;;;;2.78;1.02;;;;;;;;;;5127800;28;20036;-44
2022/04/15 10:12:07;;;;;;;5.53;1.63;;;;;;;;;;5127948;28;20127;-44
2022/04/15 10:14:33;;;;;;;2.17;1.05;;;;;;;;;;5128015;28;20146;-48
2022/04/15 10:16:59;;;;;;;1.77;1.42;;;;;;;;;;5125209;28;20062;-46
2022/04/15 10:19:25;;;;;;;5.38;2.35;;;;;;;;;;5127106;28;20043;-46
2022/04/15 10:21:51;;;;;;;3.55;2.85;;;;;;;;;;5127552;28;20508;-45
2022/04/15 10:24:17;;;;;;;7.03;3.72;;;;;;;;;;5126744;28;20129;-43
2022/04/15 10:26:46;;;;;;;6.82;3.25;;;;;;;;;;5127382;28;20519;-43
2022/04/15 10:29:12;;;;;;;5.10;2.13;;;;;;;;;;5127164;28;20142;-48
2022/04/15 10:31:42;;;;;;;11.38;4.13;;;;;;;;;;5127801;28;20115;-45
2022/04/15 10:34:12;;;;;;;9.50;4.22;;;;;;;;;;5127868;28;20047;-45
2022/04/15 10:36:38;;;;;;;6.57;4.05;;;;;;;;;;5127117;28;20092;-47
2022/04/15 10:39:04;;;;;;;3.15;2.15;;;;;;;;;;5127296;28;20058;-47
2022/04/15 10:41:50;;;;;;;13.95;4.10;;;;;;;;;;5125991;28;20042;-44
2022/04/15 10:44:35;;;;;;;2.83;2.13;;;;;;;;;;5126142;28;20153;-44
2022/04/15 10:47:05;;;;;;;15.32;3.28;;;;;;;;;;5126670;28;20073;-45
2022/04/15 10:49:33;;;;;;;4.18;2.17;;;;;;;;;;5126461;28;20526;-47
2022/04/15 10:52:00;;;;;;;6.13;1.95;;;;;;;;;;5127114;28;20490;-47
2022/04/15 10:54:28;;;;;;;5.95;2.42;;;;;;;;;;5127111;28;20766;-47
2022/04/15 10:56:57;;;;;;;2.97;2.58;;;;;;;;;;5126544;28;20065;-46
2022/04/15 11:02:20;;;;;;;4.25;2.05;;;;;;;;;;5126074;28;20058;-42
2022/04/15 11:04:50;;;;;;;2.85;2.00;;;;;;;;;;5126383;28;20046;-46
2022/04/15 11:07:17;;;;;;;3.03;1.77;;;;;;;;;;5124551;28;20035;-44
2022/04/15 11:09:43;;;;;;;2.08;1.13;;;;;;;;;;5126981;28;20126;-47
2022/04/15 11:12:09;;;;;;;1.38;0.77;;;;;;;;;;5126268;28;20134;-46
2022/04/15 11:14:35;;;;;;;5.97;1.23;;;;;;;;;;5126466;28;20485;-43
2022/04/15 11:17:00;;;;;;;0.47;0.40;;;;;;;;;;5126496;28;20039;-46
2022/04/15 11:19:28;;;;;;;2.13;1.40;;;;;;;;;;5126582;28;20553;-46
2022/04/15 11:21:54;;;;;;;1.73;1.08;;;;;;;;;;5125849;28;20107;-44
2022/04/15 11:24:20;;;;;;;1.98;1.02;;;;;;;;;;5126082;28;20487;-43
2022/04/15 11:26:46;;;;;;;1.45;1.30;;;;;;;;;;5125909;28;20200;-45
2022/04/15 11:29:12;;;;;;;6.38;3.92;;;;;;;;;;5127233;28;20133;-42
2022/04/15 11:31:37;;;;;;;3.78;1.08;;;;;;;;;;5127278;28;20051;-43
2022/04/15 11:34:03;;;;;;;0.93;0.82;;;;;;;;;;5126869;28;20772;-42
2022/04/15 11:36:30;;;;;;;3.80;1.38;;;;;;;;;;5125861;28;20054;-43
2022/04/15 11:38:59;;;;;;;9.82;1.13;;;;;;;;;;5127237;28;20518;-46
2022/04/15 11:41:25;;;;;;;5.38;1.90;;;;;;;;;;5126652;28;20065;-42
2022/04/15 11:43:54;;;;;;;2.75;1.90;;;;;;;;;;5127148;28;20496;-43
2022/04/15 11:46:19;;;;;;;4.70;3.40;;;;;;;;;;5121634;28;20039;-45
2022/04/15 11:48:45;;;;;;;5.15;1.88;;;;;;;;;;5126829;28;20058;-44
2022/04/15 11:51:10;;;;;;;0.55;0.30;;;;;;;;;;5127040;28;20116;-43
2022/04/15 11:53:35;;;;;;;3.63;0.73;;;;;;;;;;5125874;28;20062;-45
2022/04/15 11:56:02;;;;;;;3.97;1.48;;;;;;;;;;5126679;28;20050;-45
2022/04/15 11:58:34;;;;;;;2.78;1.15;;;;;;;;;;5127060;28;20055;-47
2022/04/15 12:01:00;;;;;;;1.15;1.05;;;;;;;;;;5126555;28;20414;-46
2022/04/15 12:03:27;;;;;;;1.65;0.70;;;;;;;;;;5126650;28;20039;-44
2022/04/15 12:05:53;;;;;;;1.50;0.90;;;;;;;;;;5126432;28;20400;-46
2022/04/15 12:08:19;;;;;;;2.30;1.13;;;;;;;;;;5126515;28;20050;-43
2022/04/15 12:10:46;;;;;;;3.15;1.67;;;;;;;;;;5126036;27;20130;-45
2022/04/15 12:13:12;;;;;;;5.32;1.73;;;;;;;;;;5126766;28;20728;-46
2022/04/15 12:15:38;;;;;;;3.42;1.55;;;;;;;;;;5126013;28;20171;-42
2022/04/15 12:18:04;;;;;;;5.43;3.60;;;;;;;;;;5125920;28;20462;-43
2022/04/15 12:20:33;;;;;;;2.45;1.05;;;;;;;;;;5126259;28;20043;-43
2022/04/15 12:23:02;;;;;;;7.75;2.83;;;;;;;;;;5126411;28;20107;-46
2022/04/15 12:29:47;;;;;;;3.80;0.85;;;;;;;;;;5126122;28;20077;-44
2022/04/15 12:30:57;;;;;;;6.88;1.67;;;;;;;;;;5125397;28;20061;-44
2022/04/15 12:33:23;;;;;;;0.65;0.65;;;;;;;;;;5126325;28;20043;-43
2022/04/15 12:35:59;;;;;;;3.33;1.42;;;;;;;;;;5125864;28;20130;-44
2022/04/15 12:38:24;;;;;;;6.00;2.58;;;;;;;;;;5125536;28;20043;-46
2022/04/15 12:40:50;;;;;;;2.17;1.23;;;;;;;;;;5126284;28;20055;-44
2022/04/15 12:43:16;;;;;;;2.40;1.55;;;;;;;;;;5126876;28;20067;-44
2022/04/15 12:45:49;;;;;;;5.80;2.08;;;;;;;;;;5126651;28;20039;-45
2022/04/15 12:48:14;;;;;;;2.45;1.38;;;;;;;;;;5124827;28;20100;-48
2022/04/15 12:50:40;;;;;;;9.23;3.20;;;;;;;;;;5125992;28;20043;-44
2022/04/15 12:53:16;;;;;;;2.72;1.40;;;;;;;;;;5125911;28;20134;-45
2022/04/15 12:55:42;;;;;;;3.70;1.77;;;;;;;;;;5124765;28;20036;-43
2022/04/15 12:58:21;;;;;;;5.95;2.17;;;;;;;;;;5125843;28;20036;-47
2022/04/15 13:00:49;;;;;;;3.20;1.70;;;;;;;;;;5125274;28;20122;-42
2022/04/15 13:03:17;;;;;;;3.08;2.17;;;;;;;;;;5125698;28;20130;-42
2022/04/15 13:05:44;;;;;;;3.55;1.58;;;;;;;;;;5125791;28;20047;-42
2022/04/15 13:08:09;;;;;;;1.58;1.27;;;;;;;;;;5126113;28;20182;-47
2022/04/15 13:10:35;;;;;;;6.07;4.10;;;;;;;;;;5125695;28;20060;-47
2022/04/15 13:13:00;;;;;;;2.63;1.63;;;;;;;;;;5126054;28;20123;-47
2022/04/15 13:15:26;;;;;;;4.10;3.42;;;;;;;;;;5125362;28;20704;-48
2022/04/15 13:17:51;;;;;;;3.53;1.92;;;;;;;;;;5125571;28;20058;-44
2022/04/15 13:20:16;;;;;;;2.85;1.10;;;;;;;;;;5125639;27;20031;-47
2022/04/15 13:22:44;;;;;;;2.60;2.30;;;;;;;;;;5128831;28;20138;-47
2022/04/15 13:25:09;;;;;;;3.58;2.45;;;;;;;;;;5129789;28;20070;-46
2022/04/15 13:27:35;;;;;;;1.40;0.95;;;;;;;;;;5129236;28;20513;-46
2022/04/15 13:30:00;;;;;;;5.28;3.40;;;;;;;;;;5129184;28;20039;-43
2022/04/15 13:32:26;;;;;;;2.97;2.10;;;;;;;;;;5129588;28;20047;-43
2022/04/15 13:34:52;;;;;;;4.40;2.67;;;;;;;;;;5129333;28;20047;-47
2022/04/15 13:37:17;;;;;;;14.15;3.33;;;;;;;;;;5128678;28;20058;-44
2022/04/15 13:39:43;;;;;;;6.65;1.70;;;;;;;;;;5129247;28;20051;-45
2022/04/15 13:42:10;;;;;;;8.25;3.50;;;;;;;;;;5128966;28;20043;-43
2022/04/15 13:44:35;;;;;;;3.55;2.47;;;;;;;;;;5128561;28;20043;-43
2022/04/15 13:47:03;;;;;;;1.58;1.05;;;;;;;;;;5129263;28;20455;-46
2022/04/15 13:49:28;;;;;;;5.03;1.58;;;;;;;;;;5128897;28;20043;-43
2022/04/15 13:51:54;;;;;;;7.07;2.83;;;;;;;;;;5128979;28;20126;-47
2022/04/15 13:57:03;;;;;;;3.67;2.15;;;;;;;;;;5127665;28;20086;-44
2022/04/15 13:59:29;;;;;;;8.85;2.88;;;;;;;;;;5128512;28;20070;-48
2022/04/15 14:01:54;;;;;;;2.20;1.40;;;;;;;;;;5128262;28;20097;-44
2022/04/15 14:04:20;;;;;;;2.38;1.02;;;;;;;;;;5128443;28;20524;-43
2022/04/15 14:06:46;;;;;;;11.52;7.00;;;;;;;;;;5127602;28;20046;-43
2022/04/15 14:09:12;;;;;;;7.55;4.15;;;;;;;;;;5128114;28;20043;-42
2022/04/15 14:11:39;;;;;;;10.13;8.80;;;;;;;;;;5128084;28;20049;-44
2022/04/15 14:14:05;;;;;;;6.85;4.32;;;;;;;;;;5128499;28;20084;-43
2022/04/15 14:16:31;;;;;;;5.32;4.10;;;;;;;;;;5127694;28;20118;-45
2022/04/15 14:18:57;;;;;;;16.65;15.05;;;;;;;;;;5128560;28;20517;-48
2022/04/15 14:21:23;;;;;;;7.80;4.65;;;;;;;;;;5128327;28;20089;-49
2022/04/15 14:23:48;;;;;;;21.48;15.88;;;;;;;;;;5126780;28;20031;-48
2022/04/15 14:26:15;;;;;;;14.70;11.48;;;;;;;;;;5128375;28;20069;-47
2022/04/15 14:28:41;;;;;;;7.95;5.00;;;;;;;;;;5127784;28;20517;-46
2022/04/15 14:31:06;;;;;;;10.40;9.32;;;;;;;;;;5127958;28;20043;-45
2022/04/15 14:33:32;;;;;;;4.22;1.98;;;;;;;;;;5125765;27;20667;-46
2022/04/15 14:35:58;;;;;;;6.20;3.35;;;;;;;;;;5126365;28;20240;-46
2022/04/15 14:38:23;;;;;;;9.52;4.28;;;;;;;;;;5127732;28;20051;-43
2022/04/15 14:40:49;;;;;;;4.43;2.42;;;;;;;;;;5127706;28;20080;-43
2022/04/15 14:43:14;;;;;;;2.25;1.40;;;;;;;;;;5127434;28;20053;-43